Morrow, Ohio
Current Conditions -  °F | °C
As of 1:54 AM on Monday 24 Nov 2014 (Local Time) from KILN Reporting Station
Light Rain Light Rain  
Wind Chill: 57°   Ceiling: 1200
Heat Index: 57°   Visibility: 10mi
Dew Point: 54°   Wind: 22mph
Humidity: 89%   Direction: 210°SSW
Pressure: 29.29"   Gusts: 32mph
Location:  39.35°N, 84.13°W
Report Text: KILN 240654Z AUTO 21019G28KT 10SM -RA BKN012 OVC018 14/12 A2929 RMK AO2 PK WND 19031/0637 SLP920 P0001 T01390122
Loading
Personal Weather Stations






























Interactive Weather Map New forecast layout! Learn more

10-Day Weather Forecast

Advertisements
Track Severe Weather on mobile